Time;durP1;ratioP1;P1;durP2;ratioP2;P2;SDS_P1;SDS_P2;PMS_P1;PMS_P2;Temp;Humidity;BMP_temperature;BMP_pressure;BME280_temperature;BME280_humidity;BME280_pressure;Samples;Min_cycle;Max_cycle;Signal;HPM_P1;HPM_P2
2022/07/25 00:02:05;;;;;;;7.53;5.30;;;21.80;57.00;;;;;;5075032;28;20446;-58
2022/07/25 00:04:32;;;;;;;8.07;5.80;;;21.80;57.20;;;;;;5075810;28;20517;-57
2022/07/25 00:06:59;;;;;;;9.33;5.67;;;21.70;57.40;;;;;;5072527;28;20469;-58
2022/07/25 00:09:28;;;;;;;7.67;5.63;;;21.70;57.60;;;;;;5092037;28;20530;-57
2022/07/25 00:11:55;;;;;;;6.00;5.40;;;21.70;57.80;;;;;;5084502;28;20452;-57
2022/07/25 00:14:23;;;;;;;7.00;5.13;;;21.60;57.90;;;;;;5073688;28;20525;-57
2022/07/25 00:16:50;;;;;;;6.93;5.47;;;21.60;58.20;;;;;;5074789;28;20530;-57
2022/07/25 00:19:17;;;;;;;11.00;5.80;;;21.50;58.20;;;;;;5091379;28;20477;-58
2022/07/25 00:21:45;;;;;;;6.10;5.23;;;21.50;58.40;;;;;;5092253;28;20501;-57
2022/07/25 00:24:12;;;;;;;7.47;5.40;;;21.50;58.70;;;;;;5088991;28;20505;-57
2022/07/25 00:26:41;;;;;;;9.13;5.67;;;21.40;58.90;;;;;;5090809;28;20472;-56
2022/07/25 00:29:08;;;;;;;6.47;5.20;;;21.40;59.10;;;;;;5082439;28;20475;-56
2022/07/25 00:31:36;;;;;;;7.27;4.57;;;21.30;59.30;;;;;;5090139;28;20446;-56
2022/07/25 00:34:03;;;;;;;6.70;5.40;;;21.30;59.60;;;;;;5096613;28;20813;-56
2022/07/25 00:36:30;;;;;;;8.30;5.33;;;21.30;59.80;;;;;;5083829;22;20501;-59
2022/07/25 00:38:58;;;;;;;7.13;5.10;;;21.20;59.90;;;;;;5036821;28;20446;-59
2022/07/25 00:41:25;;;;;;;8.63;5.23;;;21.20;60.10;;;;;;5021300;28;20995;-59
2022/07/25 00:43:54;;;;;;;10.23;5.63;;;21.20;60.40;;;;;;5036934;28;20449;-58
2022/07/25 00:46:21;;;;;;;6.73;5.37;;;21.10;60.50;;;;;;5037230;28;20810;-58
2022/07/25 00:48:49;;;;;;;14.60;6.00;;;21.10;60.70;;;;;;5036365;28;20449;-59
2022/07/25 00:51:16;;;;;;;6.60;5.47;;;21.10;61.00;;;;;;5036627;28;20809;-60
2022/07/25 00:53:45;;;;;;;5.97;5.37;;;21.00;61.00;;;;;;5036600;28;20449;-60
2022/07/25 00:56:12;;;;;;;6.33;4.90;;;21.00;61.30;;;;;;5036190;28;20868;-61
2022/07/25 00:58:40;;;;;;;9.57;5.37;;;21.00;61.50;;;;;;5036725;28;20941;-61
2022/07/25 01:01:08;;;;;;;5.43;4.93;;;20.90;61.70;;;;;;5036345;28;20476;-60
2022/07/25 01:03:36;;;;;;;7.60;5.27;;;20.90;62.00;;;;;;5036713;28;20445;-59
2022/07/25 01:06:03;;;;;;;6.93;5.00;;;20.90;62.20;;;;;;5035873;28;20461;-60
2022/07/25 01:08:32;;;;;;;8.23;5.50;;;20.80;62.40;;;;;;5037383;28;20449;-60
2022/07/25 01:10:59;;;;;;;10.67;5.10;;;20.80;63.40;;;;;;5038882;28;20454;-60
2022/07/25 01:13:26;;;;;;;6.30;4.97;;;20.70;62.80;;;;;;5036614;28;20457;-60
2022/07/25 01:15:54;;;;;;;5.87;5.13;;;20.70;63.10;;;;;;5034903;28;20517;-60
2022/07/25 01:18:23;;;;;;;7.30;5.43;;;20.70;63.30;;;;;;5035740;28;20451;-59
2022/07/25 01:20:52;;;;;;;10.07;5.10;;;20.70;63.60;;;;;;5035303;28;20460;-59
2022/07/25 01:23:19;;;;;;;6.57;4.80;;;20.60;63.70;;;;;;5035486;28;20456;-60
2022/07/25 01:25:46;;;;;;;8.50;5.57;;;20.60;64.00;;;;;;5035221;28;20460;-60
2022/07/25 01:28:14;;;;;;;7.07;5.50;;;20.60;64.20;;;;;;5035538;28;20457;-59
2022/07/25 01:30:41;;;;;;;5.47;4.90;;;20.50;64.40;;;;;;5035476;28;20452;-59
2022/07/25 01:33:09;;;;;;;6.30;5.07;;;20.50;64.70;;;;;;5035437;28;20449;-59
2022/07/25 01:35:36;;;;;;;6.80;5.40;;;20.50;64.80;;;;;;5034756;28;20898;-60
2022/07/25 01:38:05;;;;;;;6.33;4.33;;;20.50;65.10;;;;;;5033919;28;20499;-60
2022/07/25 01:40:32;;;;;;;6.90;4.73;;;20.40;65.30;;;;;;5035003;28;20503;-60
2022/07/25 01:42:59;;;;;;;12.10;5.60;;;20.40;65.60;;;;;;5034910;28;20445;-60
2022/07/25 01:45:27;;;;;;;8.70;4.90;;;20.40;65.70;;;;;;5034723;28;20980;-60
2022/07/25 01:47:54;;;;;;;5.67;4.83;;;20.40;65.90;;;;;;5035293;28;20949;-60
2022/07/25 01:50:22;;;;;;;8.97;4.63;;;20.40;66.00;;;;;;5038857;28;20901;-60
2022/07/25 01:52:49;;;;;;;13.23;5.67;;;20.30;66.10;;;;;;5039051;28;20453;-59
2022/07/25 01:55:19;;;;;;;8.33;5.27;;;20.30;66.10;;;;;;5039652;28;21009;-59
2022/07/25 01:57:46;;;;;;;7.70;5.60;;;20.30;66.30;;;;;;5040556;28;20445;-60
2022/07/25 02:00:15;;;;;;;5.90;4.90;;;20.30;66.40;;;;;;5039863;28;20475;-60
2022/07/25 02:02:43;;;;;;;9.50;5.07;;;20.30;66.50;;;;;;5038582;28;20453;-60
2022/07/25 02:05:11;;;;;;;8.53;5.53;;;20.30;66.50;;;;;;5036102;28;20453;-60
2022/07/25 02:07:39;;;;;;;8.80;5.20;;;20.30;66.50;;;;;;5036307;28;20445;-59
2022/07/25 02:10:08;;;;;;;5.43;4.87;;;20.30;66.40;;;;;;5034855;28;20457;-58
2022/07/25 02:12:36;;;;;;;5.63;5.10;;;20.30;66.40;;;;;;5035114;28;20503;-59
2022/07/25 02:15:04;;;;;;;7.23;5.77;;;20.30;66.40;;;;;;5032770;28;20531;-58
2022/07/25 02:17:31;;;;;;;5.30;4.77;;;20.30;66.40;;;;;;5034558;28;20449;-59
2022/07/25 02:19:59;;;;;;;4.73;4.10;;;20.30;66.40;;;;;;5034921;28;20515;-60
2022/07/25 02:22:26;;;;;;;5.80;4.87;;;20.20;66.30;;;;;;5018828;28;20504;-59
2022/07/25 02:24:53;;;;;;;6.43;5.40;;;20.20;66.30;;;;;;5034062;28;20457;-60
2022/07/25 02:27:21;;;;;;;6.40;4.50;;;20.20;66.20;;;;;;5035396;28;20580;-60
2022/07/25 02:29:49;;;;;;;4.77;4.37;;;20.20;66.40;;;;;;5034992;28;20503;-59
2022/07/25 02:32:17;;;;;;;6.40;4.60;;;20.20;66.30;;;;;;5035171;28;20449;-59
2022/07/25 02:34:44;;;;;;;4.30;3.90;;;20.20;66.40;;;;;;5034916;28;20449;-60
2022/07/25 02:37:12;;;;;;;4.83;4.40;;;20.20;66.40;;;;;;5034045;28;20477;-60
2022/07/25 02:39:39;;;;;;;4.83;4.13;;;20.20;66.40;;;;;;5034697;28;20526;-59
2022/07/25 02:42:07;;;;;;;7.00;5.40;;;20.10;66.40;;;;;;5034097;28;20523;-60
2022/07/25 02:44:34;;;;;;;6.87;4.23;;;20.10;66.40;;;;;;5034715;28;20511;-59
2022/07/25 02:47:03;;;;;;;9.97;4.70;;;20.10;66.40;;;;;;5034105;28;20465;-59
2022/07/25 02:49:30;;;;;;;7.07;4.37;;;20.10;66.40;;;;;;5033602;28;20523;-59
2022/07/25 02:51:57;;;;;;;7.27;4.93;;;20.10;66.30;;;;;;5033637;28;20449;-60
2022/07/25 02:54:25;;;;;;;7.20;4.60;;;20.10;66.30;;;;;;5033611;28;20563;-59
2022/07/25 02:56:52;;;;;;;6.27;4.87;;;20.00;66.30;;;;;;5033214;28;20580;-60
2022/07/25 02:59:19;;;;;;;5.00;4.27;;;20.00;66.40;;;;;;5033808;28;20796;-60
2022/07/25 03:01:46;;;;;;;5.63;5.10;;;20.00;66.60;;;;;;5033679;28;20485;-59
2022/07/25 03:04:15;;;;;;;8.77;5.40;;;20.00;66.70;;;;;;5034026;28;20815;-59
2022/07/25 03:06:42;;;;;;;7.47;4.23;;;19.90;66.80;;;;;;5033026;28;20543;-60
2022/07/25 03:09:10;;;;;;;6.47;4.90;;;19.90;67.10;;;;;;5033367;28;20873;-60
2022/07/25 03:11:37;;;;;;;6.13;4.70;;;19.90;67.40;;;;;;5033754;28;20507;-59
2022/07/25 03:14:05;;;;;;;6.57;5.33;;;19.80;67.70;;;;;;5033262;28;20480;-59
2022/07/25 03:16:32;;;;;;;5.37;4.63;;;19.80;68.70;;;;;;5032789;28;20491;-60
2022/07/25 03:18:59;;;;;;;7.67;5.03;;;19.80;68.30;;;;;;5033434;28;20452;-59
2022/07/25 03:21:28;;;;;;;5.90;5.07;;;19.70;68.40;;;;;;5032197;28;20960;-59
2022/07/25 03:23:55;;;;;;;5.67;4.97;;;19.70;68.60;;;;;;5032792;28;20455;-60
2022/07/25 03:26:23;;;;;;;8.50;4.90;;;19.70;68.90;;;;;;5032571;28;20499;-59
2022/07/25 03:28:50;;;;;;;6.00;5.23;;;19.70;69.10;;;;;;5033097;28;20841;-58
2022/07/25 03:31:17;;;;;;;6.90;5.17;;;19.70;69.20;;;;;;5033119;28;20454;-59
2022/07/25 03:33:45;;;;;;;8.63;4.40;;;19.70;69.40;;;;;;5033095;28;20449;-59
2022/07/25 03:36:12;;;;;;;8.30;4.87;;;19.70;69.60;;;;;;5032792;28;20489;-59
2022/07/25 03:38:41;;;;;;;5.70;5.00;;;19.70;69.70;;;;;;5032568;28;20949;-59
2022/07/25 03:41:08;;;;;;;6.33;4.83;;;19.70;69.80;;;;;;5031983;28;20929;-59
2022/07/25 03:43:35;;;;;;;5.43;4.93;;;19.70;69.80;;;;;;5032262;28;20864;-58
2022/07/25 03:46:02;;;;;;;6.60;4.80;;;19.70;69.90;;;;;;5032303;28;20515;-59
2022/07/25 03:48:30;;;;;;;5.23;4.73;;;19.70;69.80;;;;;;5032421;28;20514;-60
2022/07/25 03:50:57;;;;;;;4.90;4.40;;;19.70;69.60;;;;;;5032538;28;21007;-60
2022/07/25 03:53:25;;;;;;;6.60;4.80;;;19.80;69.50;;;;;;5032692;28;20497;-59
2022/07/25 03:55:53;;;;;;;5.57;4.60;;;19.80;69.40;;;;;;5032197;28;20476;-58
2022/07/25 03:58:21;;;;;;;6.43;4.73;;;19.80;69.20;;;;;;5031955;28;20480;-59
2022/07/25 04:00:48;;;;;;;9.23;5.77;;;19.90;69.00;;;;;;5032381;28;20488;-57
2022/07/25 04:03:15;;;;;;;5.03;4.50;;;19.90;68.70;;;;;;5033235;28;20532;-59
2022/07/25 04:05:43;;;;;;;5.00;4.50;;;19.90;68.50;;;;;;5032736;28;20496;-59
2022/07/25 04:10:02;;;;;;;5.13;4.60;;;20.10;67.60;;;;;;5123456;27;20566;-59
2022/07/25 04:12:29;;;;;;;5.40;4.90;;;20.10;67.70;;;;;;5115171;27;20562;-61
2022/07/25 04:14:57;;;;;;;4.60;4.20;;;20.30;67.30;;;;;;5121219;28;20447;-60
2022/07/25 04:17:24;;;;;;;6.87;4.63;;;20.70;66.50;;;;;;5110859;27;20466;-60
2022/07/25 04:19:51;;;;;;;7.97;4.70;;;21.10;65.00;;;;;;5093097;28;20525;-59
2022/07/25 04:22:19;;;;;;;8.13;4.90;;;21.60;63.40;;;;;;5111149;28;20456;-60
2022/07/25 04:24:46;;;;;;;5.40;4.90;;;22.10;61.90;;;;;;5095331;28;21009;-60
2022/07/25 04:27:15;;;;;;;4.47;4.07;;;22.50;60.30;;;;;;5091347;28;20519;-60
2022/07/25 04:29:42;;;;;;;6.87;4.83;;;22.80;59.00;;;;;;5090217;28;20473;-60
2022/07/25 04:32:10;;;;;;;7.87;4.63;;;23.20;57.90;;;;;;5097136;28;20450;-61
2022/07/25 04:34:37;;;;;;;9.43;5.10;;;23.50;56.80;;;;;;5110282;28;20450;-61
2022/07/25 04:37:04;;;;;;;5.20;3.87;;;23.70;55.80;;;;;;5101983;28;20464;-60
2022/07/25 04:39:32;;;;;;;4.50;4.10;;;24.00;55.00;;;;;;5090348;28;20443;-60
2022/07/25 04:41:59;;;;;;;5.13;4.60;;;24.30;54.20;;;;;;5090351;28;20451;-60
2022/07/25 04:44:28;;;;;;;7.33;4.43;;;24.50;53.30;;;;;;5090326;28;20451;-61
2022/07/25 04:46:55;;;;;;;4.57;3.70;;;24.70;52.50;;;;;;5090283;28;20469;-61
2022/07/25 04:49:22;;;;;;;4.70;3.90;;;25.00;51.80;;;;;;5091026;28;20532;-61
2022/07/25 04:51:50;;;;;;;6.57;4.37;;;25.20;51.00;;;;;;5098128;28;20451;-62
2022/07/25 04:54:17;;;;;;;4.90;4.40;;;25.40;51.00;;;;;;5107705;28;20475;-60
2022/07/25 04:56:44;;;;;;;4.87;4.37;;;25.50;49.80;;;;;;5090102;28;20541;-60
2022/07/25 04:59:12;;;;;;;6.90;4.67;;;25.70;49.20;;;;;;5090626;28;20501;-61
2022/07/25 05:01:40;;;;;;;4.30;3.90;;;25.80;48.60;;;;;;5109246;28;20486;-60
2022/07/25 05:04:08;;;;;;;5.20;4.10;;;26.00;48.10;;;;;;5109612;28;20789;-61
2022/07/25 05:06:35;;;;;;;4.17;3.80;;;26.10;47.60;;;;;;5110379;28;20833;-60
2022/07/25 05:09:02;;;;;;;4.37;4.00;;;26.20;47.30;;;;;;5094070;28;20515;-59
2022/07/25 05:11:30;;;;;;;4.43;4.03;;;26.40;46.90;;;;;;5089792;28;20449;-61
2022/07/25 05:13:57;;;;;;;4.47;3.93;;;26.50;46.40;;;;;;5089390;28;20439;-61
2022/07/25 05:16:24;;;;;;;7.33;4.00;;;26.60;46.20;;;;;;5089362;28;20885;-60
2022/07/25 05:18:53;;;;;;;6.63;4.33;;;26.70;45.80;;;;;;5079277;28;20455;-60
2022/07/25 05:21:21;;;;;;;4.60;3.90;;;26.70;45.40;;;;;;5094406;28;20462;-61
2022/07/25 05:23:48;;;;;;;4.93;4.30;;;26.70;45.10;;;;;;5089450;28;20514;-61
2022/07/25 05:26:15;;;;;;;4.60;4.20;;;26.80;45.00;;;;;;5089109;28;20465;-62
2022/07/25 05:28:43;;;;;;;4.43;4.03;;;26.80;44.80;;;;;;5086229;28;20491;-60
2022/07/25 05:31:10;;;;;;;4.13;3.73;;;27.00;44.50;;;;;;5085630;28;20440;-61
2022/07/25 05:33:37;;;;;;;4.20;3.80;;;27.10;44.20;;;;;;5086948;28;20460;-62
2022/07/25 05:36:07;;;;;;;4.57;4.00;;;27.10;44.00;;;;;;5084602;28;20518;-60
2022/07/25 05:38:35;;;;;;;5.10;4.70;;;27.20;43.80;;;;;;5086524;28;20443;-61
2022/07/25 05:41:02;;;;;;;6.57;4.03;;;27.20;43.60;;;;;;5081754;28;20445;-61
2022/07/25 05:43:29;;;;;;;7.30;4.77;;;27.30;43.60;;;;;;5083109;28;20472;-62
2022/07/25 05:46:01;;;;;;;6.47;4.07;;;27.30;43.50;;;;;;5076903;28;20841;-61
2022/07/25 05:48:28;;;;;;;4.23;3.83;;;27.40;43.50;;;;;;5076260;28;21035;-61
2022/07/25 05:50:55;;;;;;;4.47;4.07;;;27.40;43.30;;;;;;5075969;28;20452;-61
2022/07/25 05:53:24;;;;;;;5.03;4.63;;;27.50;43.20;;;;;;5076615;28;20513;-62
2022/07/25 05:55:51;;;;;;;7.47;3.83;;;27.50;43.30;;;;;;5077624;28;20526;-61
2022/07/25 05:58:19;;;;;;;4.87;4.47;;;27.50;43.30;;;;;;5079645;28;20446;-61
2022/07/25 06:00:46;;;;;;;6.70;4.43;;;27.50;43.30;;;;;;5078253;28;20445;-61
2022/07/25 06:03:13;;;;;;;4.83;4.30;;;27.50;43.30;;;;;;5078229;28;20441;-62
2022/07/25 06:05:40;;;;;;;5.00;4.20;;;27.50;43.40;;;;;;5076067;28;20989;-61
2022/07/25 06:08:08;;;;;;;4.50;4.10;;;27.60;43.60;;;;;;5075930;28;20518;-61
2022/07/25 06:10:36;;;;;;;7.00;4.07;;;27.50;43.60;;;;;;5076491;28;20433;-61
2022/07/25 06:13:04;;;;;;;4.73;3.73;;;27.50;43.80;;;;;;5075537;28;20936;-61
2022/07/25 06:15:31;;;;;;;8.47;4.53;;;27.50;44.00;;;;;;5074947;28;20510;-61
2022/07/25 06:17:58;;;;;;;4.90;4.50;;;27.50;44.00;;;;;;5074615;28;20492;-61
2022/07/25 06:20:26;;;;;;;6.07;5.33;;;27.50;44.00;;;;;;5075190;28;20512;-61
2022/07/25 06:22:53;;;;;;;4.73;4.23;;;27.50;44.00;;;;;;5074494;28;20892;-60
2022/07/25 06:25:21;;;;;;;4.30;3.90;;;27.50;44.00;;;;;;5074604;28;20442;-61
2022/07/25 06:27:49;;;;;;;5.30;4.77;;;27.50;43.90;;;;;;5074934;28;20453;-60
2022/07/25 06:30:17;;;;;;;4.23;3.90;;;27.50;43.80;;;;;;5074314;28;20484;-60
2022/07/25 06:32:44;;;;;;;6.20;4.93;;;27.60;43.80;;;;;;5073376;28;20506;-61
2022/07/25 06:35:11;;;;;;;7.53;4.30;;;27.60;43.60;;;;;;5074267;28;20918;-60
2022/07/25 06:37:39;;;;;;;5.53;5.03;;;27.70;43.60;;;;;;5073918;28;20553;-62
2022/07/25 06:40:08;;;;;;;4.67;4.23;;;27.80;43.40;;;;;;5074748;28;20547;-63
2022/07/25 06:42:38;;;;;;;5.40;4.90;;;27.80;43.30;;;;;;5074165;28;20445;-61
2022/07/25 06:45:09;;;;;;;6.30;4.93;;;27.90;43.10;;;;;;5073930;28;20507;-60
2022/07/25 06:47:37;;;;;;;4.73;4.33;;;28.00;42.90;;;;;;5066444;22;20530;-61
2022/07/25 06:50:05;;;;;;;11.80;4.70;;;28.10;42.90;;;;;;5034346;28;20533;-62
2022/07/25 06:52:32;;;;;;;7.73;4.80;;;28.10;42.70;;;;;;5034268;28;20458;-61
2022/07/25 06:54:59;;;;;;;5.83;5.00;;;28.20;42.60;;;;;;5035018;28;20557;-59
2022/07/25 06:57:27;;;;;;;5.83;4.80;;;28.30;42.50;;;;;;5037852;28;20476;-60
2022/07/25 06:59:54;;;;;;;5.93;4.80;;;28.30;42.40;;;;;;5034497;28;20440;-60
2022/07/25 07:02:23;;;;;;;5.47;5.07;;;28.30;42.40;;;;;;5033939;28;20443;-59
2022/07/25 07:04:50;;;;;;;6.20;5.13;;;28.30;42.50;;;;;;5033455;28;20450;-60
2022/07/25 07:07:18;;;;;;;6.00;4.87;;;28.30;42.50;;;;;;5033800;28;20975;-59
2022/07/25 07:09:45;;;;;;;5.90;5.10;;;28.30;42.50;;;;;;5033987;28;20997;-60
2022/07/25 07:12:12;;;;;;;5.70;5.23;;;28.30;42.50;;;;;;5034010;28;20444;-60
2022/07/25 07:14:40;;;;;;;6.70;5.00;;;28.30;42.50;;;;;;5034104;28;20977;-60
2022/07/25 07:17:08;;;;;;;6.13;4.63;;;28.50;42.60;;;;;;5033559;28;20532;-60
2022/07/25 07:19:37;;;;;;;4.97;4.57;;;28.70;42.40;;;;;;5033199;28;20501;-58
2022/07/25 07:22:04;;;;;;;6.33;5.53;;;29.00;42.00;;;;;;5033482;28;20450;-59
2022/07/25 07:24:32;;;;;;;5.87;5.37;;;29.30;41.60;;;;;;5034135;28;20457;-59
2022/07/25 07:26:59;;;;;;;5.67;5.17;;;29.50;41.20;;;;;;5033735;28;20496;-58
2022/07/25 07:29:27;;;;;;;6.20;5.50;;;29.80;40.80;;;;;;5034437;28;20530;-59
2022/07/25 07:31:54;;;;;;;5.53;5.07;;;30.00;40.40;;;;;;5033839;28;20672;-59
2022/07/25 07:34:22;;;;;;;6.90;5.00;;;30.20;40.10;;;;;;5034150;28;20449;-60
2022/07/25 07:36:50;;;;;;;6.10;5.03;;;30.40;40.40;;;;;;5033413;28;20506;-61
2022/07/25 07:39:19;;;;;;;6.00;5.50;;;30.50;39.60;;;;;;5034609;28;20443;-59
2022/07/25 07:41:46;;;;;;;5.40;4.90;;;30.50;39.50;;;;;;5034289;28;20462;-58
2022/07/25 07:44:13;;;;;;;6.83;5.60;;;30.60;39.40;;;;;;5034141;28;20450;-58
2022/07/25 07:46:41;;;;;;;6.43;5.40;;;30.80;39.20;;;;;;5033757;28;20484;-60
2022/07/25 07:49:08;;;;;;;5.63;5.10;;;31.00;39.10;;;;;;5033437;28;20493;-57
2022/07/25 07:51:36;;;;;;;10.50;5.53;;;31.20;38.80;;;;;;5033996;28;21010;-59
2022/07/25 07:56:49;;;;;;;6.53;5.37;;;31.80;38.10;;;;;;5033105;28;20475;-60
2022/07/25 07:59:17;;;;;;;5.77;5.20;;;31.90;37.90;;;;;;5032963;28;20445;-59
2022/07/25 08:01:44;;;;;;;6.40;5.80;;;31.90;38.00;;;;;;5033195;28;20451;-58
2022/07/25 08:04:11;;;;;;;6.40;5.80;;;31.80;38.10;;;;;;5033166;28;20454;-59
2022/07/25 08:06:39;;;;;;;6.57;5.87;;;31.70;38.30;;;;;;5033332;28;20470;-58
2022/07/25 08:09:08;;;;;;;6.10;5.60;;;31.70;38.60;;;;;;5033540;28;20487;-58
2022/07/25 08:11:35;;;;;;;6.00;5.50;;;31.60;38.60;;;;;;5034343;28;20450;-58
2022/07/25 08:14:04;;;;;;;6.07;5.57;;;31.50;38.80;;;;;;5033389;28;20472;-58
2022/07/25 08:16:31;;;;;;;6.50;5.90;;;31.50;39.00;;;;;;5033050;28;20482;-58
2022/07/25 08:18:59;;;;;;;6.43;5.83;;;31.50;38.90;;;;;;5033350;28;20451;-59
2022/07/25 08:21:26;;;;;;;5.97;5.43;;;31.70;38.70;;;;;;5033060;28;20917;-58
2022/07/25 08:23:53;;;;;;;6.73;6.00;;;31.90;38.50;;;;;;5032894;28;20486;-57
2022/07/25 08:26:22;;;;;;;6.80;6.07;;;32.00;38.20;;;;;;5033520;28;20501;-59
2022/07/25 08:28:49;;;;;;;6.70;6.07;;;32.10;38.00;;;;;;5033432;28;20468;-57
2022/07/25 08:31:17;;;;;;;6.23;5.73;;;32.10;37.80;;;;;;5033655;28;20492;-58
2022/07/25 08:33:44;;;;;;;6.40;5.80;;;32.30;37.90;;;;;;5035937;28;20506;-57
2022/07/25 08:36:11;;;;;;;5.73;5.23;;;32.30;37.70;;;;;;5033366;28;20452;-58
2022/07/25 08:38:39;;;;;;;6.87;6.17;;;32.40;37.70;;;;;;5034017;28;20474;-58
2022/07/25 08:41:07;;;;;;;7.57;6.87;;;32.40;37.40;;;;;;5032930;28;20521;-58
2022/07/25 08:43:38;;;;;;;6.97;6.30;;;32.60;37.00;;;;;;5032727;28;20511;-60
2022/07/25 08:46:06;;;;;;;7.90;6.67;;;32.80;36.60;;;;;;5033061;28;20491;-59
2022/07/25 08:48:34;;;;;;;6.43;5.90;;;33.00;36.10;;;;;;5032828;28;20893;-58
2022/07/25 08:51:02;;;;;;;6.90;6.30;;;33.00;35.80;;;;;;5032794;28;20480;-58
2022/07/25 08:53:30;;;;;;;7.03;6.30;;;33.10;35.60;;;;;;5032857;28;20449;-58
2022/07/25 08:55:57;;;;;;;7.13;6.43;;;33.00;35.40;;;;;;5035121;28;20452;-57
2022/07/25 08:58:25;;;;;;;6.80;6.30;;;33.00;35.40;;;;;;5036882;28;20546;-57
2022/07/25 09:00:53;;;;;;;6.43;5.83;;;33.10;35.30;;;;;;5037507;28;20814;-56
2022/07/25 09:03:21;;;;;;;6.30;5.80;;;33.10;34.90;;;;;;5037545;28;20449;-57
2022/07/25 09:05:48;;;;;;;6.53;6.03;;;33.10;34.80;;;;;;5036433;28;20524;-59
2022/07/25 09:08:17;;;;;;;7.27;6.73;;;33.20;34.90;;;;;;5036196;28;20468;-57
2022/07/25 09:10:47;;;;;;;7.27;6.47;;;33.20;34.90;;;;;;5036824;28;20505;-57
2022/07/25 09:13:16;;;;;;;7.77;7.17;;;33.30;34.90;;;;;;5036227;28;20440;-58
2022/07/25 09:15:47;;;;;;;7.57;6.07;;;33.30;34.90;;;;;;5036933;28;20452;-59
2022/07/25 09:18:18;;;;;;;7.07;6.50;;;33.40;34.90;;;;;;5036432;28;20476;-58
2022/07/25 09:20:47;;;;;;;7.50;6.80;;;33.60;34.80;;;;;;5036256;28;20434;-56
2022/07/25 09:23:27;;;;;;;7.60;6.60;;;33.70;34.70;;;;;;5036288;28;20929;-57
2022/07/25 09:26:02;;;;;;;7.43;6.53;;;33.70;34.50;;;;;;5036231;28;20425;-57
2022/07/25 09:28:29;;;;;;;6.73;6.13;;;33.80;34.40;;;;;;5036643;28;20513;-58
2022/07/25 09:30:59;;;;;;;6.57;5.97;;;33.80;34.30;;;;;;5035695;28;20536;-58
2022/07/25 09:33:29;;;;;;;6.87;6.10;;;33.80;34.20;;;;;;5036349;28;20457;-57
2022/07/25 09:35:57;;;;;;;6.63;6.13;;;33.70;34.10;;;;;;5035971;28;20507;-57
2022/07/25 09:38:25;;;;;;;7.90;7.30;;;33.80;34.10;;;;;;5035532;28;20471;-58
2022/07/25 09:40:57;;;;;;;7.67;7.07;;;33.80;33.80;;;;;;5036483;28;20867;-58
2022/07/25 09:43:34;;;;;;;7.07;6.40;;;33.90;33.60;;;;;;5035882;28;20448;-57
2022/07/25 09:46:02;;;;;;;7.80;7.17;;;34.00;33.50;;;;;;5035769;28;20457;-57
2022/07/25 09:48:32;;;;;;;8.50;7.70;;;34.10;33.50;;;;;;5036108;28;20461;-57
2022/07/25 09:50:59;;;;;;;6.93;6.30;;;34.20;33.30;;;;;;5036697;28;20523;-57
2022/07/25 09:53:28;;;;;;;9.70;7.53;;;34.40;33.00;;;;;;5035484;28;20502;-57
2022/07/25 09:55:56;;;;;;;8.00;7.10;;;34.50;32.80;;;;;;5035999;28;20453;-57
2022/07/25 09:58:23;;;;;;;7.10;6.50;;;34.50;32.60;;;;;;5041312;28;20472;-58
2022/07/25 10:00:52;;;;;;;7.37;6.77;;;34.50;32.40;;;;;;5043863;28;20441;-57
2022/07/25 10:03:29;;;;;;;6.83;6.23;;;34.50;32.40;;;;;;5037181;28;21003;-58
2022/07/25 10:06:21;;;;;;;7.60;7.00;;;34.60;32.30;;;;;;5035528;28;20831;-58
2022/07/25 10:08:50;;;;;;;7.10;6.40;;;34.70;32.20;;;;;;5032400;28;20835;-59
2022/07/25 10:11:22;;;;;;;7.33;6.73;;;34.50;32.00;;;;;;5035198;28;20492;-58
2022/07/25 10:13:50;;;;;;;6.33;5.80;;;34.60;32.00;;;;;;5035237;28;20452;-58
2022/07/25 10:16:19;;;;;;;9.00;6.60;;;34.70;31.80;;;;;;5035358;28;20520;-58
2022/07/25 10:18:51;;;;;;;6.73;6.20;;;34.90;31.70;;;;;;5035839;28;20530;-58
2022/07/25 10:21:22;;;;;;;5.93;5.43;;;35.00;31.40;;;;;;5035623;28;20848;-60
2022/07/25 10:24:03;;;;;;;8.13;6.67;;;35.10;31.20;;;;;;5035977;28;20444;-58
2022/07/25 10:26:32;;;;;;;6.33;5.80;;;35.20;31.20;;;;;;5036286;28;20464;-59
2022/07/25 10:29:00;;;;;;;6.90;6.40;;;35.40;31.10;;;;;;5037040;28;20454;-58
2022/07/25 10:31:36;;;;;;;6.80;6.20;;;35.60;30.80;;;;;;5036884;28;20481;-58
2022/07/25 10:34:04;;;;;;;6.33;5.83;;;35.70;30.50;;;;;;5036653;28;20913;-58
2022/07/25 10:36:44;;;;;;;6.73;6.23;;;35.70;30.10;;;;;;5036602;28;20479;-60
2022/07/25 10:39:13;;;;;;;6.50;6.00;;;35.80;30.20;;;;;;5036846;28;20429;-58
2022/07/25 10:41:42;;;;;;;7.03;6.43;;;36.00;30.20;;;;;;5036161;28;20457;-59
2022/07/25 10:44:13;;;;;;;7.50;6.80;;;36.20;30.20;;;;;;5035579;28;20445;-59
2022/07/25 10:46:43;;;;;;;6.80;6.20;;;36.40;30.10;;;;;;5034988;28;20481;-58
2022/07/25 10:49:19;;;;;;;7.20;6.63;;;36.60;30.00;;;;;;5037533;28;20949;-58
2022/07/25 10:51:57;;;;;;;7.10;6.50;;;36.60;29.70;;;;;;5036541;28;20538;-58
2022/07/25 10:54:25;;;;;;;7.50;6.80;;;36.50;29.80;;;;;;5035497;28;20475;-58
2022/07/25 10:56:55;;;;;;;8.23;6.80;;;36.40;29.90;;;;;;5036346;28;20979;-58
2022/07/25 10:59:30;;;;;;;7.30;6.80;;;36.50;30.00;;;;;;5036066;28;20925;-58
2022/07/25 11:01:58;;;;;;;6.97;6.43;;;36.50;29.80;;;;;;5035943;28;20502;-57
2022/07/25 11:04:26;;;;;;;7.33;6.73;;;36.40;29.70;;;;;;5035455;28;20449;-58
2022/07/25 11:06:55;;;;;;;6.70;6.10;;;36.20;29.90;;;;;;5034691;28;21066;-58
2022/07/25 11:09:24;;;;;;;6.93;6.10;;;36.10;30.00;;;;;;5034894;28;20583;-57
2022/07/25 11:11:53;;;;;;;7.00;6.30;;;36.00;30.10;;;;;;5034609;28;21074;-57
2022/07/25 11:14:23;;;;;;;7.17;6.43;;;35.90;30.10;;;;;;5034599;28;20453;-58
2022/07/25 11:16:55;;;;;;;7.30;6.80;;;35.80;30.10;;;;;;5035607;28;20480;-59
2022/07/25 11:19:25;;;;;;;6.93;6.43;;;35.70;30.10;;;;;;5033881;28;20513;-58
2022/07/25 11:21:55;;;;;;;6.90;5.93;;;35.70;30.20;;;;;;5033839;28;20487;-58
2022/07/25 11:24:33;;;;;;;7.00;6.43;;;35.70;30.30;;;;;;5034116;28;20809;-59
2022/07/25 11:27:02;;;;;;;7.40;6.80;;;35.80;30.40;;;;;;5034053;28;20522;-60
2022/07/25 11:29:29;;;;;;;7.13;6.53;;;35.70;30.30;;;;;;5033564;28;20888;-59
2022/07/25 11:31:58;;;;;;;7.80;6.27;;;35.60;30.50;;;;;;5033684;28;20519;-58
2022/07/25 11:34:28;;;;;;;7.10;6.47;;;35.50;30.70;;;;;;5033628;28;20453;-60
2022/07/25 11:36:59;;;;;;;7.87;7.17;;;35.30;30.90;;;;;;5033064;28;20461;-59
2022/07/25 11:39:27;;;;;;;7.30;6.70;;;35.20;31.10;;;;;;5033673;28;20457;-58
2022/07/25 11:42:02;;;;;;;6.70;6.10;;;35.30;31.20;;;;;;5032643;28;20441;-59
2022/07/25 11:44:37;;;;;;;7.20;6.60;;;35.50;31.10;;;;;;5029864;28;21005;-60
2022/07/25 11:47:07;;;;;;;6.57;6.07;;;35.70;30.90;;;;;;5033077;28;20476;-58
2022/07/25 11:49:44;;;;;;;7.73;6.97;;;35.80;30.80;;;;;;5033276;28;20457;-60
2022/07/25 11:52:22;;;;;;;7.50;6.90;;;35.90;30.70;;;;;;5032600;28;20522;-58
2022/07/25 11:54:53;;;;;;;7.90;7.30;;;36.10;30.60;;;;;;5033497;28;20519;-57
2022/07/25 11:57:22;;;;;;;7.97;6.63;;;36.20;30.50;;;;;;5033040;28;20479;-59
2022/07/25 11:59:49;;;;;;;7.47;6.87;;;36.10;30.60;;;;;;5033495;28;20535;-58
2022/07/25 12:02:22;;;;;;;10.40;7.17;;;36.00;30.80;;;;;;5033431;28;20933;-59
2022/07/25 12:04:55;;;;;;;7.27;5.83;;;36.00;30.80;;;;;;5034202;28;20437;-59
2022/07/25 12:07:37;;;;;;;6.17;5.67;;;36.10;30.90;;;;;;5033034;28;20472;-60
2022/07/25 12:10:05;;;;;;;7.60;6.87;;;36.10;30.80;;;;;;5033348;28;20433;-60
2022/07/25 12:12:42;;;;;;;6.90;6.30;;;36.10;30.80;;;;;;5033636;28;20444;-62
2022/07/25 12:15:12;;;;;;;7.97;7.27;;;35.90;30.90;;;;;;5033043;28;20498;-59
2022/07/25 12:17:40;;;;;;;7.20;6.50;;;35.70;31.30;;;;;;5033134;28;20472;-59
2022/07/25 12:20:14;;;;;;;7.10;6.50;;;35.40;31.50;;;;;;5032953;28;20941;-61
2022/07/25 12:22:43;;;;;;;7.17;6.10;;;35.20;31.90;;;;;;5033350;28;20459;-59
2022/07/25 12:25:11;;;;;;;7.07;6.50;;;35.00;32.20;;;;;;5033690;28;20460;-60
2022/07/25 12:27:39;;;;;;;6.87;6.20;;;35.00;32.30;;;;;;5032831;28;20568;-60
2022/07/25 12:30:08;;;;;;;7.60;6.90;;;34.90;32.30;;;;;;5034510;28;20448;-59
2022/07/25 12:32:36;;;;;;;7.90;6.33;;;34.80;32.20;;;;;;5037231;28;20507;-59
2022/07/25 12:35:05;;;;;;;7.17;6.57;;;34.80;32.20;;;;;;5038492;28;20452;-59
2022/07/25 12:37:32;;;;;;;6.97;6.40;;;34.90;32.20;;;;;;5037851;28;20496;-60
2022/07/25 12:40:01;;;;;;;6.40;5.90;;;35.00;31.70;;;;;;5037328;28;20519;-61
2022/07/25 12:42:29;;;;;;;7.33;6.03;;;35.10;31.20;;;;;;5036525;28;20448;-61
2022/07/25 12:44:56;;;;;;;6.50;5.90;;;35.10;30.80;;;;;;5038215;28;20449;-61
2022/07/25 12:47:24;;;;;;;6.97;6.20;;;34.80;30.80;;;;;;5037300;28;21008;-59
2022/07/25 12:49:51;;;;;;;6.70;6.10;;;34.60;30.90;;;;;;5036734;28;20445;-61
2022/07/25 12:52:19;;;;;;;6.93;6.40;;;34.40;31.20;;;;;;5036711;28;20476;-61
2022/07/25 12:54:46;;;;;;;7.27;6.60;;;34.10;31.50;;;;;;5036523;28;20987;-59
2022/07/25 12:57:15;;;;;;;7.00;5.60;;;33.90;31.90;;;;;;5036133;28;20476;-60